createdAt,value
2023-05-11T00:02:14.141Z,5.39
2023-05-11T00:04:41.393Z,5.35
2023-05-11T00:07:08.484Z,5.32
2023-05-11T00:09:35.891Z,5.29
2023-05-11T00:12:02.997Z,5.25
2023-05-11T00:14:29.819Z,5.21
2023-05-11T00:16:56.572Z,5.17
2023-05-11T00:19:23.354Z,5.13
2023-05-11T00:21:50.258Z,5.10
2023-05-11T00:24:16.995Z,5.07
2023-05-11T00:26:43.943Z,5.04
2023-05-11T00:29:11.073Z,5.00
2023-05-11T00:31:37.870Z,4.97
2023-05-11T00:34:04.733Z,4.94
2023-05-11T00:36:31.718Z,4.93
2023-05-11T00:38:58.510Z,4.91
2023-05-11T00:41:25.511Z,4.89
2023-05-11T00:43:52.402Z,4.86
2023-05-11T00:46:19.269Z,4.83
2023-05-11T00:48:46.386Z,4.82
2023-05-11T00:51:13.614Z,4.82
2023-05-11T00:53:40.508Z,4.82
2023-05-11T00:56:07.610Z,4.83
2023-05-11T00:58:35.120Z,4.84
2023-05-11T01:01:01.914Z,4.87
2023-05-11T01:03:29.651Z,4.90
2023-05-11T01:06:08.969Z,4.94
2023-05-11T01:08:53.356Z,4.95
2023-05-11T01:11:44.078Z,4.98
2023-05-11T01:14:27.348Z,4.99
2023-05-11T01:16:57.165Z,4.99
2023-05-11T01:19:48.756Z,5.00
2023-05-11T01:22:44.642Z,4.99
2023-05-11T01:25:39.271Z,5.00
2023-05-11T01:28:44.100Z,5.00
2023-05-11T01:31:11.376Z,5.00
2023-05-11T01:33:41.287Z,5.00
2023-05-11T01:36:10.177Z,4.98
2023-05-11T01:38:40.862Z,4.95
2023-05-11T01:41:15.780Z,4.90
2023-05-11T01:43:44.321Z,4.85
2023-05-11T01:46:11.348Z,4.79
2023-05-11T01:48:40.190Z,4.74
2023-05-11T01:51:07.165Z,4.66
2023-05-11T01:53:35.714Z,4.57
2023-05-11T01:56:02.883Z,4.50
2023-05-11T01:58:29.807Z,4.45
2023-05-11T02:00:57.228Z,4.41
2023-05-11T02:03:24.182Z,4.38
2023-05-11T02:05:51.064Z,4.36
2023-05-11T02:08:18.502Z,4.33
2023-05-11T02:10:46.104Z,4.29
2023-05-11T02:13:13.605Z,4.24
2023-05-11T02:15:41.674Z,4.17
2023-05-11T02:18:12.321Z,4.11
2023-05-11T02:20:39.632Z,4.06
2023-05-11T02:23:06.950Z,4.03
2023-05-11T02:25:33.817Z,4.01
2023-05-11T02:28:00.724Z,4.00
2023-05-11T02:30:28.085Z,3.98
2023-05-11T02:32:55.571Z,3.96
2023-05-11T02:35:24.478Z,3.95
2023-05-11T02:37:52.722Z,3.91
2023-05-11T02:40:21.913Z,3.86
2023-05-11T02:42:49.989Z,3.81
2023-05-11T02:45:16.979Z,3.76
2023-05-11T02:47:47.625Z,3.71
2023-05-11T02:50:19.484Z,3.68
2023-05-11T02:52:47.685Z,3.67
2023-05-11T02:55:15.453Z,3.67
2023-05-11T02:57:42.760Z,3.68
2023-05-11T03:00:10.932Z,3.69
2023-05-11T03:02:38.078Z,3.75
2023-05-11T03:05:06.307Z,3.92
2023-05-11T03:07:33.333Z,4.20
2023-05-11T03:10:01.208Z,4.56
2023-05-11T03:12:33.082Z,4.88
2023-05-11T03:15:00.890Z,5.12
2023-05-11T03:17:29.054Z,5.31
2023-05-11T03:19:56.752Z,5.50
2023-05-11T03:22:24.484Z,5.78
2023-05-11T03:24:51.854Z,6.05
2023-05-11T03:27:18.869Z,6.20
2023-05-11T03:29:45.742Z,6.41
2023-05-11T03:32:13.004Z,6.86
2023-05-11T03:34:40.262Z,7.34
2023-05-11T03:37:07.787Z,7.76
2023-05-11T03:39:35.258Z,8.26
2023-05-11T03:42:04.071Z,8.80
2023-05-11T03:44:34.545Z,9.28
2023-05-11T03:47:01.944Z,9.76
2023-05-11T03:49:28.981Z,10.29
2023-05-11T03:51:56.100Z,10.75
2023-05-11T03:54:23.854Z,11.11
2023-05-11T03:56:51.769Z,11.44
2023-05-11T03:59:19.561Z,11.66
2023-05-11T04:01:46.609Z,11.90
2023-05-11T04:04:14.153Z,12.33
2023-05-11T04:06:41.428Z,12.85
2023-05-11T04:09:12.647Z,13.30
2023-05-11T04:11:39.817Z,13.79
2023-05-11T04:14:06.779Z,14.31
2023-05-11T04:16:33.722Z,14.69
2023-05-11T04:19:02.350Z,14.94
2023-05-11T04:21:29.348Z,15.34
2023-05-11T04:23:56.439Z,15.91
2023-05-11T04:26:24.582Z,16.46
2023-05-11T04:28:51.356Z,16.93
2023-05-11T04:31:18.147Z,17.35
2023-05-11T04:33:44.938Z,17.71
2023-05-11T04:36:12.043Z,18.07
2023-05-11T04:38:39.171Z,18.41
2023-05-11T04:41:07.692Z,18.64
2023-05-11T04:43:35.428Z,18.93
2023-05-11T04:46:02.361Z,19.18
2023-05-11T04:48:29.858Z,19.29
2023-05-11T04:50:56.931Z,19.42
2023-05-11T04:53:28.533Z,19.57
2023-05-11T04:55:55.531Z,19.53
2023-05-11T04:58:22.671Z,19.43
2023-05-11T05:00:49.579Z,19.15
2023-05-11T05:03:16.398Z,18.62
2023-05-11T05:05:43.229Z,18.05
2023-05-11T05:08:10.327Z,17.45
2023-05-11T05:10:38.102Z,16.84
2023-05-11T05:13:04.982Z,16.29
2023-05-11T05:15:31.885Z,15.76
2023-05-11T05:17:59.573Z,15.29
2023-05-11T05:20:26.372Z,14.84
2023-05-11T05:22:53.338Z,14.46
2023-05-11T05:25:21.706Z,14.07
2023-05-11T05:27:51.818Z,13.71
2023-05-11T05:30:19.925Z,13.39
2023-05-11T05:32:48.207Z,13.10
2023-05-11T05:35:15.150Z,12.85
2023-05-11T05:37:43.220Z,12.64
2023-05-11T05:40:11.203Z,12.47
2023-05-11T05:42:46.094Z,12.28
2023-05-11T05:45:16.120Z,12.11
2023-05-11T05:47:43.149Z,12.01
2023-05-11T05:50:11.880Z,11.92
2023-05-11T05:52:40.685Z,11.84
2023-05-11T05:55:08.306Z,11.79
2023-05-11T05:57:36.876Z,11.73
2023-05-11T06:00:04.662Z,11.69
2023-05-11T06:02:40.007Z,11.65
2023-05-11T06:05:08.191Z,11.61
2023-05-11T06:07:35.160Z,11.58
2023-05-11T06:10:02.229Z,11.56
2023-05-11T06:12:30.246Z,11.56
2023-05-11T06:14:58.107Z,11.57
2023-05-11T06:17:25.795Z,11.61
2023-05-11T06:19:52.688Z,11.66
2023-05-11T06:22:22.299Z,11.68
2023-05-11T06:24:50.696Z,11.72
2023-05-11T06:27:18.483Z,11.77
2023-05-11T06:29:45.836Z,11.79
2023-05-11T06:32:12.714Z,11.81
2023-05-11T06:34:39.854Z,11.85
2023-05-11T06:37:07.515Z,11.88
2023-05-11T06:39:37.815Z,11.94
2023-05-11T06:42:07.980Z,11.99
2023-05-11T06:44:34.981Z,12.04
2023-05-11T06:47:01.809Z,12.10
2023-05-11T06:49:28.944Z,12.18
2023-05-11T06:51:56.034Z,12.25
2023-05-11T06:56:02.430Z,12.42
2023-05-11T06:58:29.906Z,12.49
2023-05-11T07:00:56.757Z,12.59
2023-05-11T07:03:23.863Z,12.68
2023-05-11T07:05:50.666Z,12.75
2023-05-11T07:08:17.453Z,12.81
2023-05-11T07:10:44.222Z,12.88
2023-05-11T07:13:11.279Z,12.97
2023-05-11T07:15:37.973Z,13.04
2023-05-11T07:18:05.024Z,13.11
2023-05-11T07:20:32.173Z,13.17
2023-05-11T07:22:59.423Z,13.23
2023-05-11T07:25:26.214Z,13.30
2023-05-11T07:27:53.243Z,13.38
2023-05-11T07:30:20.539Z,13.44
2023-05-11T07:32:48.229Z,13.48
2023-05-11T07:35:18.098Z,13.54
2023-05-11T07:37:44.977Z,13.59
2023-05-11T07:40:12.246Z,13.66
2023-05-11T07:42:39.212Z,13.71
2023-05-11T07:45:06.989Z,13.76
2023-05-11T07:47:36.781Z,13.82
2023-05-11T07:50:04.391Z,13.89
2023-05-11T07:52:31.134Z,13.96
2023-05-11T07:54:57.936Z,14.02
2023-05-11T07:57:24.822Z,14.09
2023-05-11T07:59:51.690Z,14.14
2023-05-11T08:02:19.109Z,14.20
2023-05-11T08:04:46.212Z,14.26
2023-05-11T08:07:13.011Z,14.33
2023-05-11T08:09:39.945Z,14.39
2023-05-11T08:12:07.316Z,14.46
2023-05-11T08:14:34.200Z,14.52
2023-05-11T08:17:01.290Z,14.59
2023-05-11T08:19:28.092Z,14.64
2023-05-11T08:21:54.859Z,14.69
2023-05-11T08:24:21.688Z,14.74
2023-05-11T08:26:48.635Z,14.81
2023-05-11T08:29:15.536Z,14.87
2023-05-11T08:31:42.378Z,14.96
2023-05-11T08:34:18.453Z,15.03
2023-05-11T08:36:46.024Z,15.06
2023-05-11T08:39:12.973Z,15.08
2023-05-11T08:41:39.773Z,15.11
2023-05-11T08:44:06.575Z,15.17
2023-05-11T08:46:35.711Z,15.24
2023-05-11T08:49:02.611Z,15.31
2023-05-11T08:51:29.485Z,15.37
2023-05-11T08:53:57.897Z,15.42
2023-05-11T08:56:24.919Z,15.46
2023-05-11T08:58:53.112Z,15.52
2023-05-11T09:01:23.378Z,15.60
2023-05-11T09:03:50.610Z,15.66
2023-05-11T09:06:17.973Z,15.72
2023-05-11T09:08:45.393Z,15.75
2023-05-11T09:11:12.398Z,15.74
2023-05-11T09:13:39.464Z,15.79
2023-05-11T09:16:13.872Z,15.84
2023-05-11T09:18:51.264Z,15.91
2023-05-11T09:21:18.435Z,16.02
2023-05-11T09:23:45.228Z,16.15
2023-05-11T09:26:21.159Z,16.29
2023-05-11T09:29:03.081Z,16.42
2023-05-11T09:31:39.992Z,16.54
2023-05-11T09:34:20.956Z,16.62
2023-05-11T09:36:50.539Z,16.72
2023-05-11T09:39:35.047Z,16.79
2023-05-11T09:42:18.149Z,16.82
2023-05-11T09:44:45.612Z,16.75
2023-05-11T09:47:13.003Z,16.68
2023-05-11T09:49:43.325Z,16.68
2023-05-11T09:52:11.622Z,16.76
2023-05-11T09:54:48.875Z,16.90
2023-05-11T09:57:29.283Z,17.04
2023-05-11T09:59:57.134Z,17.17
2023-05-11T10:02:26.324Z,17.29
2023-05-11T10:04:55.034Z,17.37
2023-05-11T10:07:25.175Z,17.41
2023-05-11T10:09:53.634Z,17.42
2023-05-11T10:12:22.073Z,17.46
2023-05-11T10:14:50.035Z,17.53
2023-05-11T10:17:17.423Z,17.65
2023-05-11T10:19:44.250Z,17.75
2023-05-11T10:22:11.440Z,17.72
2023-05-11T10:24:38.258Z,17.64
2023-05-11T10:27:05.507Z,17.62
2023-05-11T10:29:32.358Z,17.62
2023-05-11T10:32:00.172Z,17.62
2023-05-11T10:34:29.292Z,17.69
2023-05-11T10:37:01.537Z,17.76
2023-05-11T10:39:31.571Z,17.78
2023-05-11T10:42:27.264Z,17.73
2023-05-11T10:45:45.816Z,17.67
2023-05-11T10:48:31.555Z,17.59
2023-05-11T10:51:13.107Z,17.55
2023-05-11T10:53:49.211Z,17.55
2023-05-11T10:56:31.812Z,17.63
2023-05-11T10:59:47.186Z,17.80
2023-05-11T11:02:13.983Z,18.04
2023-05-11T11:04:51.727Z,18.20
2023-05-11T11:07:19.930Z,18.31
2023-05-11T11:10:00.713Z,18.37
2023-05-11T11:12:28.298Z,18.40
2023-05-11T11:15:06.728Z,18.39
2023-05-11T11:17:35.073Z,18.36
2023-05-11T11:20:08.706Z,18.36
2023-05-11T11:22:38.913Z,18.44
2023-05-11T11:25:06.422Z,18.56
2023-05-11T11:27:45.822Z,18.69
2023-05-11T11:30:22.989Z,18.82
2023-05-11T11:32:51.120Z,18.88
2023-05-11T11:35:40.206Z,18.84
2023-05-11T11:38:07.654Z,18.77
2023-05-11T11:40:51.112Z,18.74
2023-05-11T11:43:23.536Z,18.72
2023-05-11T11:46:02.920Z,18.71
2023-05-11T11:48:35.451Z,18.72
2023-05-11T11:51:10.547Z,18.69
2023-05-11T11:53:37.884Z,18.62
2023-05-11T11:56:05.783Z,18.53
2023-05-11T11:58:41.889Z,18.48
2023-05-11T12:01:09.288Z,18.46
2023-05-11T12:03:36.888Z,18.38
2023-05-11T12:06:08.325Z,18.32
2023-05-11T12:08:35.621Z,18.28
2023-05-11T12:11:03.077Z,18.29
2023-05-11T12:13:30.317Z,18.33
2023-05-11T12:16:09.744Z,18.37
2023-05-11T12:18:36.884Z,18.40
2023-05-11T12:21:03.912Z,18.43
2023-05-11T12:23:30.822Z,18.41
2023-05-11T12:26:07.221Z,18.37
2023-05-11T12:28:34.178Z,18.34
2023-05-11T12:31:01.063Z,18.40
2023-05-11T12:33:27.855Z,18.48
2023-05-11T12:35:55.523Z,18.55
2023-05-11T12:38:22.363Z,18.57
2023-05-11T12:40:50.075Z,18.50
2023-05-11T12:43:18.115Z,18.37
2023-05-11T12:45:45.332Z,18.32
2023-05-11T12:48:12.699Z,18.34
2023-05-11T12:50:43.414Z,18.36
2023-05-11T12:53:15.148Z,18.37
2023-05-11T12:55:42.108Z,18.37
2023-05-11T13:00:58.451Z,18.43
2023-05-11T13:03:26.811Z,18.40
2023-05-11T13:06:10.062Z,18.34
2023-05-11T13:08:44.251Z,18.30
2023-05-11T13:11:22.839Z,18.34
2023-05-11T13:13:50.508Z,18.41
2023-05-11T13:16:28.124Z,18.46
2023-05-11T13:19:02.494Z,18.50
2023-05-11T13:21:29.973Z,18.52
2023-05-11T13:23:57.050Z,18.58
2023-05-11T13:26:29.440Z,18.67
2023-05-11T13:29:09.364Z,18.77
2023-05-11T13:31:47.558Z,18.89
2023-05-11T13:34:14.616Z,18.93
2023-05-11T13:36:41.461Z,18.85
2023-05-11T13:39:08.381Z,18.70
2023-05-11T13:41:35.488Z,18.55
2023-05-11T13:44:03.083Z,18.41
2023-05-11T13:46:29.980Z,18.34
2023-05-11T13:48:56.808Z,18.30
2023-05-11T13:51:23.880Z,18.35
2023-05-11T13:53:51.045Z,18.44
2023-05-11T13:56:19.673Z,18.49
2023-05-11T13:58:46.647Z,18.52
2023-05-11T14:01:13.723Z,18.52
2023-05-11T14:03:40.749Z,18.50
2023-05-11T14:06:07.811Z,18.41
2023-05-11T14:08:34.756Z,18.31
2023-05-11T14:11:01.584Z,18.21
2023-05-11T14:13:28.451Z,18.10
2023-05-11T14:15:55.368Z,18.05
2023-05-11T14:18:25.010Z,18.05
2023-05-11T14:20:52.045Z,18.08
2023-05-11T14:23:18.846Z,18.12
2023-05-11T14:25:45.572Z,18.12
2023-05-11T14:28:12.445Z,18.05
2023-05-11T14:30:39.455Z,18.01
2023-05-11T14:33:06.661Z,18.00
2023-05-11T14:35:33.818Z,17.96
2023-05-11T14:38:01.247Z,17.89
2023-05-11T14:40:27.984Z,17.89
2023-05-11T14:42:55.077Z,17.89
2023-05-11T14:45:22.096Z,17.93
2023-05-11T14:47:49.010Z,17.99
2023-05-11T14:50:16.207Z,18.03
2023-05-11T14:52:42.896Z,18.10
2023-05-11T14:55:09.899Z,18.26
2023-05-11T14:57:36.780Z,18.42
2023-05-11T15:00:04.188Z,18.54
2023-05-11T15:02:31.095Z,18.56
2023-05-11T15:04:58.039Z,18.50
2023-05-11T15:07:24.956Z,18.47
2023-05-11T15:09:52.270Z,18.46
2023-05-11T15:12:19.095Z,18.46
2023-05-11T15:14:46.167Z,18.44
2023-05-11T15:17:12.983Z,18.36
2023-05-11T15:19:39.802Z,18.35
2023-05-11T15:22:06.581Z,18.40
2023-05-11T15:24:34.087Z,18.50
2023-05-11T15:27:00.954Z,18.58
2023-05-11T15:29:27.701Z,18.65
2023-05-11T15:31:55.041Z,18.72
2023-05-11T15:34:22.044Z,18.74
2023-05-11T15:36:49.895Z,18.72
2023-05-11T15:39:17.393Z,18.67
2023-05-11T15:41:44.458Z,18.60
2023-05-11T15:44:11.299Z,18.53
2023-05-11T15:46:38.659Z,18.48
2023-05-11T15:49:06.359Z,18.46
2023-05-11T15:51:33.161Z,18.43
2023-05-11T15:53:59.990Z,18.39
2023-05-11T15:56:27.045Z,18.31
2023-05-11T15:58:53.969Z,18.21
2023-05-11T16:01:21.197Z,18.10
2023-05-11T16:03:48.112Z,18.02
2023-05-11T16:06:15.066Z,17.99
2023-05-11T16:08:42.129Z,17.93
2023-05-11T16:11:08.935Z,17.86
2023-05-11T16:13:35.731Z,17.78
2023-05-11T16:16:02.548Z,17.75
2023-05-11T16:18:29.437Z,17.72
2023-05-11T16:20:56.547Z,17.67
2023-05-11T16:23:25.475Z,17.60
2023-05-11T16:25:52.476Z,17.52
2023-05-11T16:28:19.836Z,17.44
2023-05-11T16:30:47.098Z,17.38
2023-05-11T16:33:14.393Z,17.35
2023-05-11T16:35:41.332Z,17.32
2023-05-11T16:38:16.820Z,17.30
2023-05-11T16:40:44.365Z,17.25
2023-05-11T16:43:11.333Z,17.17
2023-05-11T16:45:38.376Z,17.09
2023-05-11T16:48:05.891Z,17.01
2023-05-11T16:50:32.904Z,16.93
2023-05-11T16:52:59.975Z,16.85
2023-05-11T16:55:26.824Z,16.77
2023-05-11T16:57:53.698Z,16.69
2023-05-11T17:00:21.809Z,16.63
2023-05-11T17:02:48.991Z,16.54
2023-05-11T17:05:15.924Z,16.45
2023-05-11T17:07:44.920Z,16.36
2023-05-11T17:10:11.963Z,16.26
2023-05-11T17:12:38.793Z,16.16
2023-05-11T17:15:10.058Z,16.04
2023-05-11T17:17:37.993Z,15.93
2023-05-11T17:20:07.782Z,15.82
2023-05-11T17:22:34.989Z,15.72
2023-05-11T17:25:03.906Z,15.62
2023-05-11T17:27:31.623Z,15.51
2023-05-11T17:29:58.588Z,15.39
2023-05-11T17:32:25.618Z,15.25
2023-05-11T17:34:52.595Z,15.11
2023-05-11T17:37:31.325Z,14.96
2023-05-11T17:40:01.510Z,14.81
2023-05-11T17:42:28.634Z,14.68
2023-05-11T17:44:55.745Z,14.54
2023-05-11T17:47:23.250Z,14.42
2023-05-11T17:49:50.547Z,14.29
2023-05-11T17:52:17.516Z,14.18
2023-05-11T17:54:44.492Z,14.06
2023-05-11T17:57:11.314Z,13.96
2023-05-11T17:59:38.399Z,13.85
2023-05-11T18:02:05.621Z,13.75
2023-05-11T18:04:32.396Z,13.65
2023-05-11T18:07:00.425Z,13.55
2023-05-11T18:09:27.212Z,13.46
2023-05-11T18:11:54.062Z,13.37
2023-05-11T18:14:21.189Z,13.30
2023-05-11T18:16:50.555Z,13.21
2023-05-11T18:19:18.163Z,13.12
2023-05-11T18:21:45.596Z,13.04
2023-05-11T18:24:14.625Z,12.97
2023-05-11T18:26:42.049Z,12.89
2023-05-11T18:29:08.842Z,12.81
2023-05-11T18:31:36.304Z,12.74
2023-05-11T18:34:04.648Z,12.67
2023-05-11T18:36:31.553Z,12.60
2023-05-11T18:38:58.385Z,12.53
2023-05-11T18:41:25.388Z,12.47
2023-05-11T18:43:53.597Z,12.41
2023-05-11T18:46:21.611Z,12.34
2023-05-11T18:48:52.844Z,12.27
2023-05-11T18:51:22.909Z,12.19
2023-05-11T18:53:50.041Z,12.12
2023-05-11T18:56:17.384Z,12.06
2023-05-11T18:58:46.602Z,12.00
2023-05-11T19:01:14.172Z,11.93
2023-05-11T19:03:41.339Z,11.87
2023-05-11T19:06:08.230Z,11.82
2023-05-11T19:08:35.334Z,11.77
2023-05-11T19:13:32.013Z,11.69
2023-05-11T19:15:58.949Z,11.61
2023-05-11T19:18:27.499Z,11.56
2023-05-11T19:20:54.634Z,11.51
2023-05-11T19:23:21.783Z,11.47
2023-05-11T19:25:48.806Z,11.43
2023-05-11T19:28:15.852Z,11.38
2023-05-11T19:30:42.675Z,11.34
2023-05-11T19:33:09.592Z,11.30
2023-05-11T19:35:36.456Z,11.25
2023-05-11T19:38:06.121Z,11.21
2023-05-11T19:43:06.056Z,11.12
2023-05-11T19:45:33.300Z,11.08
2023-05-11T19:48:00.401Z,11.03
2023-05-11T19:50:27.825Z,10.99
2023-05-11T19:52:54.715Z,10.94
2023-05-11T19:55:21.836Z,10.89
2023-05-11T19:57:48.730Z,10.85
2023-05-11T20:00:18.217Z,10.83
2023-05-11T20:02:45.606Z,10.79
2023-05-11T20:05:12.646Z,10.77
2023-05-11T20:07:39.579Z,10.74
2023-05-11T20:10:07.091Z,10.71
2023-05-11T20:12:34.125Z,10.67
2023-05-11T20:15:01.026Z,10.63
2023-05-11T20:17:27.767Z,10.60
2023-05-11T20:19:55.083Z,10.57
2023-05-11T20:22:22.739Z,10.54
2023-05-11T20:24:49.602Z,10.50
2023-05-11T20:27:16.421Z,10.47
2023-05-11T20:29:43.424Z,10.44
2023-05-11T20:32:10.522Z,10.41
2023-05-11T20:34:37.397Z,10.39
2023-05-11T20:37:04.501Z,10.36
2023-05-11T20:39:31.304Z,10.33
2023-05-11T20:41:58.992Z,10.29
2023-05-11T20:44:26.218Z,10.27
2023-05-11T20:46:53.043Z,10.23
2023-05-11T20:49:34.732Z,10.21
2023-05-11T20:52:06.468Z,10.17
2023-05-11T20:54:35.077Z,10.13
2023-05-11T20:57:05.091Z,10.10
2023-05-11T21:02:02.297Z,10.02
2023-05-11T21:04:31.239Z,9.98
2023-05-11T21:06:58.121Z,9.95
2023-05-11T21:09:25.627Z,9.92
2023-05-11T21:11:52.527Z,9.88
2023-05-11T21:14:19.316Z,9.85
2023-05-11T21:16:46.260Z,9.81
2023-05-11T21:19:13.020Z,9.76
2023-05-11T21:21:39.811Z,9.72
2023-05-11T21:24:06.883Z,9.67
2023-05-11T21:26:33.611Z,9.63
2023-05-11T21:29:00.344Z,9.60
2023-05-11T21:31:27.413Z,9.57
2023-05-11T21:33:54.424Z,9.55
2023-05-11T21:36:22.352Z,9.52
2023-05-11T21:38:49.476Z,9.48
2023-05-11T21:41:17.012Z,9.44
2023-05-11T21:43:44.323Z,9.40
2023-05-11T21:46:11.254Z,9.36
2023-05-11T21:48:38.203Z,9.34
2023-05-11T21:51:05.024Z,9.33
2023-05-11T21:53:31.958Z,9.31
2023-05-11T21:55:58.971Z,9.28
2023-05-11T21:58:26.640Z,9.25
2023-05-11T22:00:55.794Z,9.22
2023-05-11T22:03:22.816Z,9.19
2023-05-11T22:05:49.756Z,9.16
2023-05-11T22:08:16.577Z,9.12
2023-05-11T22:10:43.399Z,9.10
2023-05-11T22:13:10.431Z,9.06
2023-05-11T22:15:37.446Z,9.04
2023-05-11T22:18:05.160Z,9.02
2023-05-11T22:20:32.113Z,9.00
2023-05-11T22:22:59.442Z,8.98
2023-05-11T22:25:26.672Z,8.96
2023-05-11T22:27:53.898Z,8.95
2023-05-11T22:30:21.101Z,8.93
2023-05-11T22:32:48.213Z,8.91
2023-05-11T22:35:15.064Z,8.89
2023-05-11T22:37:41.992Z,8.86
2023-05-11T22:40:09.610Z,8.83
2023-05-11T22:42:36.378Z,8.80
2023-05-11T22:45:03.372Z,8.78
2023-05-11T22:47:30.258Z,8.76
2023-05-11T22:49:57.322Z,8.74
2023-05-11T22:52:24.141Z,8.72
2023-05-11T22:55:04.055Z,8.71
2023-05-11T22:57:30.997Z,8.71
2023-05-11T22:59:57.935Z,8.69
2023-05-11T23:02:24.708Z,8.68
2023-05-11T23:04:52.282Z,8.66
2023-05-11T23:07:19.490Z,8.63
2023-05-11T23:09:46.432Z,8.59
2023-05-11T23:12:13.547Z,8.55
2023-05-11T23:14:40.445Z,8.51
2023-05-11T23:17:07.532Z,8.46
2023-05-11T23:19:35.256Z,8.42
2023-05-11T23:22:02.501Z,8.38
2023-05-11T23:24:29.303Z,8.36
2023-05-11T23:26:56.055Z,8.33
2023-05-11T23:29:22.967Z,8.30
2023-05-11T23:31:51.149Z,8.28
2023-05-11T23:34:18.439Z,8.26
2023-05-11T23:36:45.299Z,8.24
2023-05-11T23:39:12.381Z,8.23
2023-05-11T23:41:39.268Z,8.21
2023-05-11T23:44:06.044Z,8.19
2023-05-11T23:46:32.950Z,8.18
2023-05-11T23:48:59.737Z,8.15
2023-05-11T23:51:26.618Z,8.13
2023-05-11T23:53:53.377Z,8.10
2023-05-11T23:56:20.161Z,8.07
2023-05-11T23:58:47.134Z,8.05
